Grand Rapids, MI (49501)

11:07 PM EDT on April 23, 2017 (GMT -0400)
West Grand | | Change Station
Active Advisory: Flood Advisory Active Notice: Flood Advisory

Elev 650 ft 42.98 °N, 85.69 °W | Updated 10 minutes ago

Clear
Clear
48.2 °F
Feels Like 48 °F
N
0.0
Wind Variable Wind from West

Today
High -- | Low -- °F
--% Chance of Precip.
Yesterday
High -- | Low -- °F
Precip. -- in
Pressure 30.07 in
Visibility 10.0 miles
Clouds Few 25000 ft
Windchill 48 °F
Dew Point 35 °F
Humidity 61%
Rainfall 0.00 in
Snow Depth Not available.
6:47 AM 8:34 PM
Waning Crescent, 8% visible
METAR KGRR 240253Z 34003KT 10SM FEW250 13/01 A3007 RMK AO2 SLP181 T01280011 50009
Pressure 30.07 in
Visibility 10.0 miles
Clouds Few 25000 ft
Windchill 48 °F
Dew Point 35 °F
Humidity 61%
Rainfall 0.00 in
Snow Depth Not available.
6:47 AM 8:34 PM
Waning Crescent, 8% visible
METAR KGRR 240253Z 34003KT 10SM FEW250 13/01 A3007 RMK AO2 SLP181 T01280011 50009

Get Your Daily Forecast Email!

Thanks for signing up!

Be on the lookout for a verification email in your inbox.

You'll start receiving severe weather alerts in your inbox..

×

10-Day Weather Forecast

Almanac

Astronomy

Apr. 23, 2017 Rise Set
Actual Time
Civil Twilight
Nautical Twilight
Astronomical Twilight
Moon
Length of Visible Light
Length of Day
Tomorrow will be .
, % of the Moon is Illuminated

Today's Extremes

State Highs State Lows

Community

WunderPhotos

WunderBlog® & News

Nearby

Air Quality

  Air Quality AQ Index Pollutant
Not available.

Snow Depth

Station Depth Elevation

Earthquake Activity

City Distance Mag. Time & Date
Minimum magnitude displayed is 2.5.

Coastal Water Temperatures

Place Temperature

Stations

Nearby Weather Stations

Station Location Temp. Windchill Dew Point Humidity Wind Precip. Elev Updated Type
                   

Watches & Warnings

Flood Advisory
Issued: 8:55 PM EDT Apr. 23, 2017 – National Weather Service

The flood advisory continues for
the Grand River at Lowell
* until late Tuesday night.
* There is not current observed data. The state was estimated to be near
10.1 feet Sunday morning.
* Bankfull stage is 10.0 feet.
* Flood stage is 15.0 feet.
* Forecast, the river will fall to near 10.1 feet after midnight
tonight.
* Impact, at 10.0 feet... river is bankfull. Expect flooding of low
lying areas adjacent to the banks.


Lat... Lon 4298 8541 4296 8534 4297 8524 4290 8521
      4289 8534 4289 8548